sensor_id;sensor_type;location;lat;lon;timestamp;temperature;humidity
7846;DHT22;3968;51.424;6.788;2024-01-15T00:01:53;2.60;99.90
7846;DHT22;3968;51.424;6.788;2024-01-15T00:04:19;2.60;99.90
7846;DHT22;3968;51.424;6.788;2024-01-15T00:06:45;2.70;99.90
7846;DHT22;3968;51.424;6.788;2024-01-15T00:09:10;2.70;99.90
7846;DHT22;3968;51.424;6.788;2024-01-15T00:11:36;2.70;99.90
7846;DHT22;3968;51.424;6.788;2024-01-15T00:14:01;2.70;99.90
7846;DHT22;3968;51.424;6.788;2024-01-15T00:16:28;2.70;99.90
7846;DHT22;3968;51.424;6.788;2024-01-15T00:18:54;2.70;99.90
7846;DHT22;3968;51.424;6.788;2024-01-15T00:21:19;2.80;99.90
7846;DHT22;3968;51.424;6.788;2024-01-15T00:23:45;2.70;99.90
7846;DHT22;3968;51.424;6.788;2024-01-15T00:26:11;2.70;99.90
7846;DHT22;3968;51.424;6.788;2024-01-15T00:28:40;2.70;99.90
7846;DHT22;3968;51.424;6.788;2024-01-15T00:31:05;2.80;99.90
7846;DHT22;3968;51.424;6.788;2024-01-15T00:33:31;2.80;99.90
7846;DHT22;3968;51.424;6.788;2024-01-15T00:35:57;2.80;99.90
7846;DHT22;3968;51.424;6.788;2024-01-15T00:38:22;2.80;99.90
7846;DHT22;3968;51.424;6.788;2024-01-15T00:40:48;2.80;99.90
7846;DHT22;3968;51.424;6.788;2024-01-15T00:43:14;2.80;99.90
7846;DHT22;3968;51.424;6.788;2024-01-15T00:45:40;2.80;99.90
7846;DHT22;3968;51.424;6.788;2024-01-15T00:48:06;2.80;99.90
7846;DHT22;3968;51.424;6.788;2024-01-15T00:50:31;2.80;99.90
7846;DHT22;3968;51.424;6.788;2024-01-15T00:52:57;2.80;99.90
7846;DHT22;3968;51.424;6.788;2024-01-15T00:55:23;2.90;99.90
7846;DHT22;3968;51.424;6.788;2024-01-15T00:57:48;2.90;99.90
7846;DHT22;3968;51.424;6.788;2024-01-15T01:00:14;2.90;99.90
7846;DHT22;3968;51.424;6.788;2024-01-15T01:02:40;3.00;99.90
7846;DHT22;3968;51.424;6.788;2024-01-15T01:05:05;3.00;99.90
7846;DHT22;3968;51.424;6.788;2024-01-15T01:07:31;2.90;99.90
7846;DHT22;3968;51.424;6.788;2024-01-15T01:09:56;2.90;99.90
7846;DHT22;3968;51.424;6.788;2024-01-15T01:12:22;2.90;99.90
7846;DHT22;3968;51.424;6.788;2024-01-15T01:14:48;2.90;99.90
7846;DHT22;3968;51.424;6.788;2024-01-15T01:17:13;2.80;99.90
7846;DHT22;3968;51.424;6.788;2024-01-15T01:19:39;2.90;99.90
7846;DHT22;3968;51.424;6.788;2024-01-15T01:22:04;2.90;99.90
7846;DHT22;3968;51.424;6.788;2024-01-15T01:24:30;2.90;99.90
7846;DHT22;3968;51.424;6.788;2024-01-15T01:26:56;2.90;99.90
7846;DHT22;3968;51.424;6.788;2024-01-15T01:29:21;2.80;99.90
7846;DHT22;3968;51.424;6.788;2024-01-15T01:31:48;2.80;99.90
7846;DHT22;3968;51.424;6.788;2024-01-15T01:34:15;2.80;99.90
7846;DHT22;3968;51.424;6.788;2024-01-15T01:36:41;2.80;99.90
7846;DHT22;3968;51.424;6.788;2024-01-15T01:39:07;2.80;99.90
7846;DHT22;3968;51.424;6.788;2024-01-15T01:41:32;2.80;99.90
7846;DHT22;3968;51.424;6.788;2024-01-15T01:43:58;2.90;99.90
7846;DHT22;3968;51.424;6.788;2024-01-15T01:46:24;2.90;99.90
7846;DHT22;3968;51.424;6.788;2024-01-15T01:48:52;2.90;99.90
7846;DHT22;3968;51.424;6.788;2024-01-15T01:51:18;2.90;99.90
7846;DHT22;3968;51.424;6.788;2024-01-15T01:53:45;3.00;99.90
7846;DHT22;3968;51.424;6.788;2024-01-15T01:56:11;3.00;99.90
7846;DHT22;3968;51.424;6.788;2024-01-15T01:58:37;3.00;99.90
7846;DHT22;3968;51.424;6.788;2024-01-15T02:01:03;3.00;99.90
7846;DHT22;3968;51.424;6.788;2024-01-15T02:03:30;3.00;99.90
7846;DHT22;3968;51.424;6.788;2024-01-15T02:05:56;3.00;99.90
7846;DHT22;3968;51.424;6.788;2024-01-15T02:08:22;3.00;99.90
7846;DHT22;3968;51.424;6.788;2024-01-15T02:10:48;3.00;99.90
7846;DHT22;3968;51.424;6.788;2024-01-15T02:13:13;3.00;99.90
7846;DHT22;3968;51.424;6.788;2024-01-15T02:15:40;2.90;99.90
7846;DHT22;3968;51.424;6.788;2024-01-15T02:18:06;2.90;99.90
7846;DHT22;3968;51.424;6.788;2024-01-15T02:20:35;3.00;99.90
7846;DHT22;3968;51.424;6.788;2024-01-15T02:23:09;3.00;99.90
7846;DHT22;3968;51.424;6.788;2024-01-15T02:25:40;2.90;99.90
7846;DHT22;3968;51.424;6.788;2024-01-15T02:28:07;2.90;99.90
7846;DHT22;3968;51.424;6.788;2024-01-15T02:30:37;2.90;99.90
7846;DHT22;3968;51.424;6.788;2024-01-15T02:33:07;2.90;99.90
7846;DHT22;3968;51.424;6.788;2024-01-15T02:35:32;2.90;99.90
7846;DHT22;3968;51.424;6.788;2024-01-15T02:37:58;2.90;99.90
7846;DHT22;3968;51.424;6.788;2024-01-15T02:40:24;2.90;99.90
7846;DHT22;3968;51.424;6.788;2024-01-15T02:42:50;3.00;99.90
7846;DHT22;3968;51.424;6.788;2024-01-15T02:45:16;3.00;99.90
7846;DHT22;3968;51.424;6.788;2024-01-15T02:47:42;3.00;99.90
7846;DHT22;3968;51.424;6.788;2024-01-15T02:50:07;2.90;99.90
7846;DHT22;3968;51.424;6.788;2024-01-15T02:52:33;3.00;99.90
7846;DHT22;3968;51.424;6.788;2024-01-15T02:54:59;3.00;99.90
7846;DHT22;3968;51.424;6.788;2024-01-15T02:57:24;3.00;99.90
7846;DHT22;3968;51.424;6.788;2024-01-15T02:59:50;3.00;99.90
7846;DHT22;3968;51.424;6.788;2024-01-15T03:02:16;3.00;99.90
7846;DHT22;3968;51.424;6.788;2024-01-15T03:04:44;3.00;99.90
7846;DHT22;3968;51.424;6.788;2024-01-15T03:07:10;3.00;99.90
7846;DHT22;3968;51.424;6.788;2024-01-15T03:09:36;3.00;99.90
7846;DHT22;3968;51.424;6.788;2024-01-15T03:12:01;3.00;99.90
7846;DHT22;3968;51.424;6.788;2024-01-15T03:14:27;3.00;99.90
7846;DHT22;3968;51.424;6.788;2024-01-15T03:16:53;3.10;99.90
7846;DHT22;3968;51.424;6.788;2024-01-15T03:19:19;3.10;99.90
7846;DHT22;3968;51.424;6.788;2024-01-15T03:21:45;3.00;99.90
7846;DHT22;3968;51.424;6.788;2024-01-15T03:24:10;3.00;99.90
7846;DHT22;3968;51.424;6.788;2024-01-15T03:26:36;3.00;99.90
7846;DHT22;3968;51.424;6.788;2024-01-15T03:29:01;3.00;99.90
7846;DHT22;3968;51.424;6.788;2024-01-15T03:31:27;3.00;99.90
7846;DHT22;3968;51.424;6.788;2024-01-15T03:33:53;3.00;99.90
7846;DHT22;3968;51.424;6.788;2024-01-15T03:36:18;2.90;99.90
7846;DHT22;3968;51.424;6.788;2024-01-15T03:38:44;3.00;99.90
7846;DHT22;3968;51.424;6.788;2024-01-15T03:41:09;3.00;99.90
7846;DHT22;3968;51.424;6.788;2024-01-15T03:43:35;3.00;99.90
7846;DHT22;3968;51.424;6.788;2024-01-15T03:46:01;3.00;99.90
7846;DHT22;3968;51.424;6.788;2024-01-15T03:48:27;3.00;99.90
7846;DHT22;3968;51.424;6.788;2024-01-15T03:50:53;3.00;99.90
7846;DHT22;3968;51.424;6.788;2024-01-15T03:53:19;3.00;99.90
7846;DHT22;3968;51.424;6.788;2024-01-15T03:55:44;3.00;99.90
7846;DHT22;3968;51.424;6.788;2024-01-15T03:58:10;3.00;99.90
7846;DHT22;3968;51.424;6.788;2024-01-15T04:00:37;3.00;99.90
7846;DHT22;3968;51.424;6.788;2024-01-15T04:03:02;3.00;99.90
7846;DHT22;3968;51.424;6.788;2024-01-15T04:05:28;3.00;99.90
7846;DHT22;3968;51.424;6.788;2024-01-15T04:07:53;3.10;99.90
7846;DHT22;3968;51.424;6.788;2024-01-15T04:10:19;3.00;99.90
7846;DHT22;3968;51.424;6.788;2024-01-15T04:12:45;3.00;99.90
7846;DHT22;3968;51.424;6.788;2024-01-15T04:15:13;3.00;99.90
7846;DHT22;3968;51.424;6.788;2024-01-15T04:17:39;3.00;99.90
7846;DHT22;3968;51.424;6.788;2024-01-15T04:20:05;3.00;99.90
7846;DHT22;3968;51.424;6.788;2024-01-15T04:22:30;3.00;99.90
7846;DHT22;3968;51.424;6.788;2024-01-15T04:24:56;2.90;99.90
7846;DHT22;3968;51.424;6.788;2024-01-15T04:27:21;2.90;99.90
7846;DHT22;3968;51.424;6.788;2024-01-15T04:29:47;2.90;99.90
7846;DHT22;3968;51.424;6.788;2024-01-15T04:32:13;2.90;99.90
7846;DHT22;3968;51.424;6.788;2024-01-15T04:34:38;2.90;99.90
7846;DHT22;3968;51.424;6.788;2024-01-15T04:37:04;3.00;99.90
7846;DHT22;3968;51.424;6.788;2024-01-15T04:39:29;2.90;99.90
7846;DHT22;3968;51.424;6.788;2024-01-15T04:41:55;2.90;99.90
7846;DHT22;3968;51.424;6.788;2024-01-15T04:44:20;2.90;99.90
7846;DHT22;3968;51.424;6.788;2024-01-15T04:46:46;2.90;99.90
7846;DHT22;3968;51.424;6.788;2024-01-15T04:49:12;3.00;99.90
7846;DHT22;3968;51.424;6.788;2024-01-15T04:51:37;2.90;99.90
7846;DHT22;3968;51.424;6.788;2024-01-15T04:54:03;2.90;99.90
7846;DHT22;3968;51.424;6.788;2024-01-15T04:56:29;2.90;99.90
7846;DHT22;3968;51.424;6.788;2024-01-15T04:58:54;3.00;99.90
7846;DHT22;3968;51.424;6.788;2024-01-15T05:01:20;3.00;99.90
7846;DHT22;3968;51.424;6.788;2024-01-15T05:03:46;3.00;99.90
7846;DHT22;3968;51.424;6.788;2024-01-15T05:06:11;3.00;99.90
7846;DHT22;3968;51.424;6.788;2024-01-15T05:08:37;2.90;99.90
7846;DHT22;3968;51.424;6.788;2024-01-15T05:11:03;2.90;99.90
7846;DHT22;3968;51.424;6.788;2024-01-15T05:13:29;2.90;99.90
7846;DHT22;3968;51.424;6.788;2024-01-15T05:15:54;2.90;99.90
7846;DHT22;3968;51.424;6.788;2024-01-15T05:18:20;2.90;99.90
7846;DHT22;3968;51.424;6.788;2024-01-15T05:20:45;2.90;99.90
7846;DHT22;3968;51.424;6.788;2024-01-15T05:23:11;2.90;99.90
7846;DHT22;3968;51.424;6.788;2024-01-15T05:25:37;3.00;99.90
7846;DHT22;3968;51.424;6.788;2024-01-15T05:28:02;3.00;99.90
7846;DHT22;3968;51.424;6.788;2024-01-15T05:30:28;3.00;99.90
7846;DHT22;3968;51.424;6.788;2024-01-15T05:32:53;2.90;99.90
7846;DHT22;3968;51.424;6.788;2024-01-15T05:35:19;2.90;99.90
7846;DHT22;3968;51.424;6.788;2024-01-15T05:37:45;3.00;99.90
7846;DHT22;3968;51.424;6.788;2024-01-15T05:40:12;3.00;99.90
7846;DHT22;3968;51.424;6.788;2024-01-15T05:42:41;3.00;99.90
7846;DHT22;3968;51.424;6.788;2024-01-15T05:45:07;3.00;99.90
7846;DHT22;3968;51.424;6.788;2024-01-15T05:47:33;3.10;99.90
7846;DHT22;3968;51.424;6.788;2024-01-15T05:50:00;3.00;99.90
7846;DHT22;3968;51.424;6.788;2024-01-15T05:52:25;3.10;99.90
7846;DHT22;3968;51.424;6.788;2024-01-15T05:54:51;3.10;99.90
7846;DHT22;3968;51.424;6.788;2024-01-15T05:57:17;3.10;99.90
7846;DHT22;3968;51.424;6.788;2024-01-15T05:59:44;3.00;99.90
7846;DHT22;3968;51.424;6.788;2024-01-15T06:02:09;3.10;99.90
7846;DHT22;3968;51.424;6.788;2024-01-15T06:04:36;3.10;99.90
7846;DHT22;3968;51.424;6.788;2024-01-15T06:07:02;3.10;99.90
7846;DHT22;3968;51.424;6.788;2024-01-15T06:09:27;3.10;99.90
7846;DHT22;3968;51.424;6.788;2024-01-15T06:11:53;3.10;99.90
7846;DHT22;3968;51.424;6.788;2024-01-15T06:14:19;3.20;99.90
7846;DHT22;3968;51.424;6.788;2024-01-15T06:16:45;3.20;99.90
7846;DHT22;3968;51.424;6.788;2024-01-15T06:19:10;3.20;99.90
7846;DHT22;3968;51.424;6.788;2024-01-15T06:21:36;3.20;99.90
7846;DHT22;3968;51.424;6.788;2024-01-15T06:24:02;3.20;99.90
7846;DHT22;3968;51.424;6.788;2024-01-15T06:26:27;3.20;99.90
7846;DHT22;3968;51.424;6.788;2024-01-15T06:28:53;3.20;99.90
7846;DHT22;3968;51.424;6.788;2024-01-15T06:31:18;3.10;99.90
7846;DHT22;3968;51.424;6.788;2024-01-15T06:33:44;3.10;99.90
7846;DHT22;3968;51.424;6.788;2024-01-15T06:36:12;3.10;99.90
7846;DHT22;3968;51.424;6.788;2024-01-15T06:38:38;3.10;99.90
7846;DHT22;3968;51.424;6.788;2024-01-15T06:41:03;3.10;99.90
7846;DHT22;3968;51.424;6.788;2024-01-15T06:43:29;3.00;99.90
7846;DHT22;3968;51.424;6.788;2024-01-15T06:45:55;3.10;99.90
7846;DHT22;3968;51.424;6.788;2024-01-15T06:48:20;3.10;99.90
7846;DHT22;3968;51.424;6.788;2024-01-15T06:50:46;3.10;99.90
7846;DHT22;3968;51.424;6.788;2024-01-15T06:53:11;3.10;99.90
7846;DHT22;3968;51.424;6.788;2024-01-15T06:55:38;3.10;99.90
7846;DHT22;3968;51.424;6.788;2024-01-15T06:58:04;3.10;99.90
7846;DHT22;3968;51.424;6.788;2024-01-15T07:00:30;3.10;99.90
7846;DHT22;3968;51.424;6.788;2024-01-15T07:02:56;3.00;99.90
7846;DHT22;3968;51.424;6.788;2024-01-15T07:05:22;3.00;99.90
7846;DHT22;3968;51.424;6.788;2024-01-15T07:07:48;3.00;99.90
7846;DHT22;3968;51.424;6.788;2024-01-15T07:10:14;3.10;99.90
7846;DHT22;3968;51.424;6.788;2024-01-15T07:12:42;3.00;99.90
7846;DHT22;3968;51.424;6.788;2024-01-15T07:15:08;3.00;99.90
7846;DHT22;3968;51.424;6.788;2024-01-15T07:17:34;3.10;99.90
7846;DHT22;3968;51.424;6.788;2024-01-15T07:20:00;3.10;99.90
7846;DHT22;3968;51.424;6.788;2024-01-15T07:22:26;3.10;99.90
7846;DHT22;3968;51.424;6.788;2024-01-15T07:24:51;3.10;99.90
7846;DHT22;3968;51.424;6.788;2024-01-15T07:27:17;3.10;99.90
7846;DHT22;3968;51.424;6.788;2024-01-15T07:29:42;3.10;99.90
7846;DHT22;3968;51.424;6.788;2024-01-15T07:32:09;3.10;99.90
7846;DHT22;3968;51.424;6.788;2024-01-15T07:34:35;3.10;99.90
7846;DHT22;3968;51.424;6.788;2024-01-15T07:37:01;3.10;99.90
7846;DHT22;3968;51.424;6.788;2024-01-15T07:39:26;3.10;99.90
7846;DHT22;3968;51.424;6.788;2024-01-15T07:41:54;3.10;99.90
7846;DHT22;3968;51.424;6.788;2024-01-15T07:44:20;3.10;99.90
7846;DHT22;3968;51.424;6.788;2024-01-15T07:46:48;3.10;99.90
7846;DHT22;3968;51.424;6.788;2024-01-15T07:49:14;3.10;99.90
7846;DHT22;3968;51.424;6.788;2024-01-15T07:51:39;3.10;99.90
7846;DHT22;3968;51.424;6.788;2024-01-15T07:54:11;3.00;99.90
7846;DHT22;3968;51.424;6.788;2024-01-15T07:56:59;3.00;99.90
7846;DHT22;3968;51.424;6.788;2024-01-15T07:59:26;3.00;99.90
7846;DHT22;3968;51.424;6.788;2024-01-15T08:01:52;3.00;99.90
7846;DHT22;3968;51.424;6.788;2024-01-15T08:04:18;3.00;99.90
7846;DHT22;3968;51.424;6.788;2024-01-15T08:06:44;3.00;99.90
7846;DHT22;3968;51.424;6.788;2024-01-15T08:09:10;3.00;99.90
7846;DHT22;3968;51.424;6.788;2024-01-15T08:11:38;3.00;99.90
7846;DHT22;3968;51.424;6.788;2024-01-15T08:14:04;2.90;99.90
7846;DHT22;3968;51.424;6.788;2024-01-15T08:16:30;3.00;99.90
7846;DHT22;3968;51.424;6.788;2024-01-15T08:18:55;2.90;99.90
7846;DHT22;3968;51.424;6.788;2024-01-15T08:21:22;2.90;99.90
7846;DHT22;3968;51.424;6.788;2024-01-15T08:23:47;2.90;99.90
7846;DHT22;3968;51.424;6.788;2024-01-15T08:26:13;2.90;99.90
7846;DHT22;3968;51.424;6.788;2024-01-15T08:28:39;2.90;99.90
7846;DHT22;3968;51.424;6.788;2024-01-15T08:31:04;2.90;99.90
7846;DHT22;3968;51.424;6.788;2024-01-15T08:33:30;2.90;99.90
7846;DHT22;3968;51.424;6.788;2024-01-15T08:35:55;2.90;99.90
7846;DHT22;3968;51.424;6.788;2024-01-15T08:38:21;2.90;99.90
7846;DHT22;3968;51.424;6.788;2024-01-15T08:40:49;2.90;99.90
7846;DHT22;3968;51.424;6.788;2024-01-15T08:43:15;2.90;99.90
7846;DHT22;3968;51.424;6.788;2024-01-15T08:45:40;2.90;99.90
7846;DHT22;3968;51.424;6.788;2024-01-15T08:48:06;2.80;99.90
7846;DHT22;3968;51.424;6.788;2024-01-15T08:50:32;2.80;99.90
7846;DHT22;3968;51.424;6.788;2024-01-15T08:52:58;2.70;99.90
7846;DHT22;3968;51.424;6.788;2024-01-15T08:55:25;2.70;99.90
7846;DHT22;3968;51.424;6.788;2024-01-15T08:57:51;2.60;99.90
7846;DHT22;3968;51.424;6.788;2024-01-15T09:00:17;2.60;99.90
7846;DHT22;3968;51.424;6.788;2024-01-15T09:02:43;2.40;99.90
7846;DHT22;3968;51.424;6.788;2024-01-15T09:05:09;2.30;99.90
7846;DHT22;3968;51.424;6.788;2024-01-15T09:07:35;2.30;99.90
7846;DHT22;3968;51.424;6.788;2024-01-15T09:10:00;2.40;99.90
7846;DHT22;3968;51.424;6.788;2024-01-15T09:12:27;2.40;99.90
7846;DHT22;3968;51.424;6.788;2024-01-15T09:14:53;2.40;99.90
7846;DHT22;3968;51.424;6.788;2024-01-15T09:17:19;2.40;99.90
7846;DHT22;3968;51.424;6.788;2024-01-15T09:19:45;2.40;99.90
7846;DHT22;3968;51.424;6.788;2024-01-15T09:22:12;2.40;99.90
7846;DHT22;3968;51.424;6.788;2024-01-15T09:24:40;2.50;99.90
7846;DHT22;3968;51.424;6.788;2024-01-15T09:27:07;2.60;99.90
7846;DHT22;3968;51.424;6.788;2024-01-15T09:29:32;2.70;99.90
7846;DHT22;3968;51.424;6.788;2024-01-15T09:31:58;2.60;99.90
7846;DHT22;3968;51.424;6.788;2024-01-15T09:34:24;2.70;99.90
7846;DHT22;3968;51.424;6.788;2024-01-15T09:36:50;2.80;99.90
7846;DHT22;3968;51.424;6.788;2024-01-15T09:39:15;2.90;99.90
7846;DHT22;3968;51.424;6.788;2024-01-15T09:41:41;3.00;99.90
7846;DHT22;3968;51.424;6.788;2024-01-15T09:44:10;3.00;99.90
7846;DHT22;3968;51.424;6.788;2024-01-15T09:46:38;3.00;99.90
7846;DHT22;3968;51.424;6.788;2024-01-15T09:49:04;3.00;99.90
7846;DHT22;3968;51.424;6.788;2024-01-15T09:51:32;3.10;99.90
7846;DHT22;3968;51.424;6.788;2024-01-15T09:53:58;3.20;99.90
7846;DHT22;3968;51.424;6.788;2024-01-15T09:56:24;3.10;99.90
7846;DHT22;3968;51.424;6.788;2024-01-15T09:58:50;3.20;99.90
7846;DHT22;3968;51.424;6.788;2024-01-15T10:01:20;3.20;99.90
7846;DHT22;3968;51.424;6.788;2024-01-15T10:03:46;3.20;99.90
7846;DHT22;3968;51.424;6.788;2024-01-15T10:06:15;3.20;99.90
7846;DHT22;3968;51.424;6.788;2024-01-15T10:08:46;3.20;99.90
7846;DHT22;3968;51.424;6.788;2024-01-15T10:11:13;3.10;99.90
7846;DHT22;3968;51.424;6.788;2024-01-15T10:13:39;3.10;99.90
7846;DHT22;3968;51.424;6.788;2024-01-15T10:16:05;3.10;99.90
7846;DHT22;3968;51.424;6.788;2024-01-15T10:18:32;3.20;99.90
7846;DHT22;3968;51.424;6.788;2024-01-15T10:20:58;3.20;99.90
7846;DHT22;3968;51.424;6.788;2024-01-15T10:23:24;3.10;99.90
7846;DHT22;3968;51.424;6.788;2024-01-15T10:25:50;3.10;99.90
7846;DHT22;3968;51.424;6.788;2024-01-15T10:28:19;3.10;99.90
7846;DHT22;3968;51.424;6.788;2024-01-15T10:30:45;3.10;99.90
7846;DHT22;3968;51.424;6.788;2024-01-15T10:33:11;3.20;99.90
7846;DHT22;3968;51.424;6.788;2024-01-15T10:35:38;3.20;99.90
7846;DHT22;3968;51.424;6.788;2024-01-15T10:38:05;3.30;99.90
7846;DHT22;3968;51.424;6.788;2024-01-15T10:40:31;3.40;99.90
7846;DHT22;3968;51.424;6.788;2024-01-15T10:42:57;3.30;99.90
7846;DHT22;3968;51.424;6.788;2024-01-15T10:45:23;3.30;99.90
7846;DHT22;3968;51.424;6.788;2024-01-15T10:47:50;3.30;99.90
7846;DHT22;3968;51.424;6.788;2024-01-15T10:50:15;3.30;99.90
7846;DHT22;3968;51.424;6.788;2024-01-15T10:52:42;3.20;99.90
7846;DHT22;3968;51.424;6.788;2024-01-15T10:55:09;3.20;99.90
7846;DHT22;3968;51.424;6.788;2024-01-15T10:57:36;3.30;99.90
7846;DHT22;3968;51.424;6.788;2024-01-15T11:00:03;3.20;99.90
7846;DHT22;3968;51.424;6.788;2024-01-15T11:02:32;3.30;99.90
7846;DHT22;3968;51.424;6.788;2024-01-15T11:04:59;3.30;99.90
7846;DHT22;3968;51.424;6.788;2024-01-15T11:07:26;3.20;99.90
7846;DHT22;3968;51.424;6.788;2024-01-15T11:09:52;3.30;99.90
7846;DHT22;3968;51.424;6.788;2024-01-15T11:12:18;3.30;99.90
7846;DHT22;3968;51.424;6.788;2024-01-15T11:14:49;3.30;99.90
7846;DHT22;3968;51.424;6.788;2024-01-15T11:17:16;3.40;99.90
7846;DHT22;3968;51.424;6.788;2024-01-15T11:19:47;3.40;99.90
7846;DHT22;3968;51.424;6.788;2024-01-15T11:24:57;3.50;99.90
7846;DHT22;3968;51.424;6.788;2024-01-15T11:27:45;3.50;99.90
7846;DHT22;3968;51.424;6.788;2024-01-15T11:30:17;3.50;99.90
7846;DHT22;3968;51.424;6.788;2024-01-15T11:32:43;3.60;99.90
7846;DHT22;3968;51.424;6.788;2024-01-15T11:35:12;3.60;99.90
7846;DHT22;3968;51.424;6.788;2024-01-15T11:40:37;3.30;99.90
7846;DHT22;3968;51.424;6.788;2024-01-15T11:43:04;3.40;99.90
7846;DHT22;3968;51.424;6.788;2024-01-15T11:45:30;3.40;99.90
7846;DHT22;3968;51.424;6.788;2024-01-15T11:48:12;3.40;99.90
7846;DHT22;3968;51.424;6.788;2024-01-15T11:50:57;3.30;99.90
7846;DHT22;3968;51.424;6.788;2024-01-15T11:53:47;3.20;99.90
7846;DHT22;3968;51.424;6.788;2024-01-15T11:56:17;3.30;99.90
7846;DHT22;3968;51.424;6.788;2024-01-15T11:58:43;3.30;99.90
7846;DHT22;3968;51.424;6.788;2024-01-15T12:01:10;3.30;99.90
7846;DHT22;3968;51.424;6.788;2024-01-15T12:03:36;3.30;99.90
7846;DHT22;3968;51.424;6.788;2024-01-15T12:06:04;3.20;99.90
7846;DHT22;3968;51.424;6.788;2024-01-15T12:08:30;3.20;99.90
7846;DHT22;3968;51.424;6.788;2024-01-15T12:10:56;3.20;99.90
7846;DHT22;3968;51.424;6.788;2024-01-15T12:13:22;3.20;99.90
7846;DHT22;3968;51.424;6.788;2024-01-15T12:15:48;3.30;99.90
7846;DHT22;3968;51.424;6.788;2024-01-15T12:18:16;3.30;99.90
7846;DHT22;3968;51.424;6.788;2024-01-15T12:20:42;3.40;99.90
7846;DHT22;3968;51.424;6.788;2024-01-15T12:23:09;3.50;99.90
7846;DHT22;3968;51.424;6.788;2024-01-15T12:25:36;3.60;99.90
7846;DHT22;3968;51.424;6.788;2024-01-15T12:28:03;3.70;99.90
7846;DHT22;3968;51.424;6.788;2024-01-15T12:30:30;3.60;99.90
7846;DHT22;3968;51.424;6.788;2024-01-15T12:33:01;3.70;99.90
7846;DHT22;3968;51.424;6.788;2024-01-15T12:35:29;3.80;99.90
7846;DHT22;3968;51.424;6.788;2024-01-15T12:37:55;3.80;99.90
7846;DHT22;3968;51.424;6.788;2024-01-15T12:40:22;3.90;99.90
7846;DHT22;3968;51.424;6.788;2024-01-15T12:42:48;3.70;99.90
7846;DHT22;3968;51.424;6.788;2024-01-15T12:45:14;3.80;99.90
7846;DHT22;3968;51.424;6.788;2024-01-15T12:47:41;3.80;99.90
7846;DHT22;3968;51.424;6.788;2024-01-15T12:50:08;3.80;99.90
7846;DHT22;3968;51.424;6.788;2024-01-15T12:52:34;3.80;99.90
7846;DHT22;3968;51.424;6.788;2024-01-15T12:55:00;3.70;99.90
7846;DHT22;3968;51.424;6.788;2024-01-15T12:57:26;3.60;99.90
7846;DHT22;3968;51.424;6.788;2024-01-15T12:59:54;3.60;99.90
7846;DHT22;3968;51.424;6.788;2024-01-15T13:02:19;3.50;99.90
7846;DHT22;3968;51.424;6.788;2024-01-15T13:04:45;3.40;99.90
7846;DHT22;3968;51.424;6.788;2024-01-15T13:07:10;3.40;99.90
7846;DHT22;3968;51.424;6.788;2024-01-15T13:09:36;3.30;99.90
7846;DHT22;3968;51.424;6.788;2024-01-15T13:12:02;3.30;99.90
7846;DHT22;3968;51.424;6.788;2024-01-15T13:14:28;3.30;99.90
7846;DHT22;3968;51.424;6.788;2024-01-15T13:16:54;3.40;99.90
7846;DHT22;3968;51.424;6.788;2024-01-15T13:19:21;3.30;99.90
7846;DHT22;3968;51.424;6.788;2024-01-15T13:21:47;3.40;99.90
7846;DHT22;3968;51.424;6.788;2024-01-15T13:24:13;3.40;99.90
7846;DHT22;3968;51.424;6.788;2024-01-15T13:26:40;3.40;99.90
7846;DHT22;3968;51.424;6.788;2024-01-15T13:29:06;3.40;99.90
7846;DHT22;3968;51.424;6.788;2024-01-15T13:31:32;3.40;99.90
7846;DHT22;3968;51.424;6.788;2024-01-15T13:33:59;3.40;99.90
7846;DHT22;3968;51.424;6.788;2024-01-15T13:36:25;3.30;99.90
7846;DHT22;3968;51.424;6.788;2024-01-15T13:38:52;3.30;99.90
7846;DHT22;3968;51.424;6.788;2024-01-15T13:41:21;3.20;99.90
7846;DHT22;3968;51.424;6.788;2024-01-15T13:43:53;3.20;99.90
7846;DHT22;3968;51.424;6.788;2024-01-15T13:46:23;3.30;99.90
7846;DHT22;3968;51.424;6.788;2024-01-15T13:48:49;3.30;99.90
7846;DHT22;3968;51.424;6.788;2024-01-15T13:51:15;3.40;99.90
7846;DHT22;3968;51.424;6.788;2024-01-15T13:53:40;3.50;99.90
7846;DHT22;3968;51.424;6.788;2024-01-15T13:56:07;3.50;99.90
7846;DHT22;3968;51.424;6.788;2024-01-15T13:58:33;3.50;99.90
7846;DHT22;3968;51.424;6.788;2024-01-15T14:01:02;3.50;99.90
7846;DHT22;3968;51.424;6.788;2024-01-15T14:03:31;3.50;99.90
7846;DHT22;3968;51.424;6.788;2024-01-15T14:05:57;3.50;99.90
7846;DHT22;3968;51.424;6.788;2024-01-15T14:08:24;3.40;99.90
7846;DHT22;3968;51.424;6.788;2024-01-15T14:10:50;3.40;99.90
7846;DHT22;3968;51.424;6.788;2024-01-15T14:13:16;3.30;99.90
7846;DHT22;3968;51.424;6.788;2024-01-15T14:15:42;3.30;99.90
7846;DHT22;3968;51.424;6.788;2024-01-15T14:18:08;3.20;99.90
7846;DHT22;3968;51.424;6.788;2024-01-15T14:20:33;3.10;99.90
7846;DHT22;3968;51.424;6.788;2024-01-15T14:22:59;3.00;99.90
7846;DHT22;3968;51.424;6.788;2024-01-15T14:25:25;3.10;99.90
7846;DHT22;3968;51.424;6.788;2024-01-15T14:27:50;3.10;99.90
7846;DHT22;3968;51.424;6.788;2024-01-15T14:30:16;3.00;99.90
7846;DHT22;3968;51.424;6.788;2024-01-15T14:32:42;3.00;99.90
7846;DHT22;3968;51.424;6.788;2024-01-15T14:35:09;3.10;99.90
7846;DHT22;3968;51.424;6.788;2024-01-15T14:37:37;3.20;99.90
7846;DHT22;3968;51.424;6.788;2024-01-15T14:40:04;3.10;99.90
7846;DHT22;3968;51.424;6.788;2024-01-15T14:42:30;3.10;99.90
7846;DHT22;3968;51.424;6.788;2024-01-15T14:44:56;3.10;99.90
7846;DHT22;3968;51.424;6.788;2024-01-15T14:47:22;3.10;99.90
7846;DHT22;3968;51.424;6.788;2024-01-15T14:49:49;3.20;99.90
7846;DHT22;3968;51.424;6.788;2024-01-15T14:52:15;3.30;99.90
7846;DHT22;3968;51.424;6.788;2024-01-15T14:54:41;3.30;99.90
7846;DHT22;3968;51.424;6.788;2024-01-15T14:57:07;3.30;99.90
7846;DHT22;3968;51.424;6.788;2024-01-15T14:59:32;3.20;99.90
7846;DHT22;3968;51.424;6.788;2024-01-15T15:01:58;3.20;99.90
7846;DHT22;3968;51.424;6.788;2024-01-15T15:04:24;3.20;99.90
7846;DHT22;3968;51.424;6.788;2024-01-15T15:06:49;3.20;99.90
7846;DHT22;3968;51.424;6.788;2024-01-15T15:09:15;3.10;99.90
7846;DHT22;3968;51.424;6.788;2024-01-15T15:11:41;3.10;99.90
7846;DHT22;3968;51.424;6.788;2024-01-15T15:14:06;3.10;99.90
7846;DHT22;3968;51.424;6.788;2024-01-15T15:16:32;3.10;99.90
7846;DHT22;3968;51.424;6.788;2024-01-15T15:18:58;3.10;99.90
7846;DHT22;3968;51.424;6.788;2024-01-15T15:21:23;3.00;99.90
7846;DHT22;3968;51.424;6.788;2024-01-15T15:23:49;3.00;99.90
7846;DHT22;3968;51.424;6.788;2024-01-15T15:26:15;3.30;99.90
7846;DHT22;3968;51.424;6.788;2024-01-15T15:28:40;3.30;99.90
7846;DHT22;3968;51.424;6.788;2024-01-15T15:31:06;3.40;99.90
7846;DHT22;3968;51.424;6.788;2024-01-15T15:33:36;3.30;99.90
7846;DHT22;3968;51.424;6.788;2024-01-15T15:36:02;3.30;99.90
7846;DHT22;3968;51.424;6.788;2024-01-15T15:38:30;3.20;99.90
7846;DHT22;3968;51.424;6.788;2024-01-15T15:40:56;3.20;99.90
7846;DHT22;3968;51.424;6.788;2024-01-15T15:43:22;3.10;99.90
7846;DHT22;3968;51.424;6.788;2024-01-15T15:45:50;3.00;99.90
7846;DHT22;3968;51.424;6.788;2024-01-15T15:48:16;3.00;99.90
7846;DHT22;3968;51.424;6.788;2024-01-15T15:50:41;3.00;99.90
7846;DHT22;3968;51.424;6.788;2024-01-15T15:53:07;2.90;99.90
7846;DHT22;3968;51.424;6.788;2024-01-15T15:55:33;2.90;99.90
7846;DHT22;3968;51.424;6.788;2024-01-15T15:58:02;2.90;99.90
7846;DHT22;3968;51.424;6.788;2024-01-15T16:00:29;2.90;99.90
7846;DHT22;3968;51.424;6.788;2024-01-15T16:02:54;2.80;99.90
7846;DHT22;3968;51.424;6.788;2024-01-15T16:05:20;2.80;99.90
7846;DHT22;3968;51.424;6.788;2024-01-15T16:07:46;3.10;99.90
7846;DHT22;3968;51.424;6.788;2024-01-15T16:10:12;4.70;99.90
7846;DHT22;3968;51.424;6.788;2024-01-15T16:12:38;5.40;99.90
7846;DHT22;3968;51.424;6.788;2024-01-15T16:15:17;5.00;99.90
7846;DHT22;3968;51.424;6.788;2024-01-15T16:17:44;4.70;99.90